Aérodrome :







RETROUVEZ-NOUS SUR...

 
LOGIN :

S'inscrire | Disclaimer

   EN    FR    IT 

 









Légende :    VFR   VFR Marginal   IFR   IFR Intensif   IFR Très Intensif
Visi : 
Plafond : 
>= 8 km
>= 3000ft
5 à 8 km
1000 à 3000 ft
1500m à 5 km
500 à 1000 ft
800 à 1500m
200 à 500 ft
< 800m
< 200 ft
Symboles :   Orages  Brouillard  Fortes neiges  Fortes précipitations  Vent > 20 kt






- Altitude de l'aérodrome : 27 ft
- Code IATA : FSP


LFVP - St Pierre et Miquelon

DERNIER METAR :
  • 150200Z 12029G43KT 3200 RA BR OVC006 04/04 Q1016 BECMG 14030G45KT

METARs EXPIRÉS :
  • 150100Z 11025G36KT 3700 RA BR OVC007 04/03 Q1020 BECMG 14030G45KT
  • 150000Z 12025G38KT 4700 RA BR OVC007 03/03 Q1022 BECMG 14030G45KT
  • 142300Z 11024KT 5000 RA BR OVC010 03/02 Q1024 BECMG 14030G45KT

TAF TAF LFVP
Valide du 14 à 18h jusqu'au 15 à 03h UTC


141700Z 1418/1503 15020KT 9999 BKN018 BKN045
BECMG 1421/1424 15025G35KT 3500 -RA BR OVC006
BECMG 1500/1503 14035G50KT
PROB30
TEMPO 1423/1503 1200 RA BR OVC003



MET'MAP, la Météo Aéronautique d'un coup d'oeil ! - Copyright ORBIFLY Décembre 2007 - Disclaimer

ORBIFLY MET'MAP TEAM :

Programmation & Développement : Alexandra Zaïnal
Sur une idée originale de : Baudouin d'Aumeries
Assistance à la programmation : Marc-Olivier Méhu
Soutien technique & logistique : Manuel Goepfert

Contact : metmap@orbifly.com




SOURCES & CREDITS :

   NOAA